Friday, January 19, 2018, 2:35 AM EST
Back to Local

KLCI, Laconia, Laconia Municipal Airport

Location: Laconia, NH, United States Lat: 43.567
Local Time: 2:35 AM EST ( 7:35 GMT) Lon: -71.417
Time Zone: US/Eastern Elev: 544 ft

Show me the last for .
Show Decoded

2018-01-19 01:56 METAR KLCI 190656Z AUTO 23005KT 10SM CLR M08/M09 A2988 RMK AO2 SLPNO T10831094
                 FZRANO =
2018-01-19 00:56 METAR KLCI 190556Z AUTO 00000KT 10SM CLR M09/M11 A2987 RMK AO2 SLPNO T10941106
                 11050 21106 58013 FZRANO =
2018-01-18 23:56 METAR KLCI 190456Z AUTO 00000KT 10SM CLR M09/M10 A2988 RMK AO2 SLPNO T10891100
                 400001117 FZRANO =
2018-01-18 22:56 METAR KLCI 190356Z AUTO 24005KT 10SM CLR M09/M11 A2991 RMK AO2 SLPNO T10941106
                 FZRANO =
2018-01-18 21:56 METAR KLCI 190256Z AUTO 24005KT 10SM CLR M11/M13 A2991 RMK AO2 SLPNO T11061128
                 53008 FZRANO =
2018-01-18 20:56 METAR KLCI 190156Z AUTO 25003KT 10SM CLR M09/M11 A2989 RMK AO2 SLPNO T10891111
                 FZRANO =
2018-01-18 19:56 METAR KLCI 190056Z AUTO 26004KT 10SM CLR M07/M10 A2989 RMK AO2 SLPNO T10721100
                 FZRANO =
2018-01-18 18:56 METAR KLCI 182356Z AUTO 27005KT 10SM CLR M05/M09 A2988 RMK AO2 SLPNO 6////
                 T10501094 53016 FZRANO =
2018-01-18 17:56 METAR KLCI 182256Z AUTO VRB05KT 10SM CLR M04/M09 A2986 RMK AO2 SLPNO T10441089
                 FZRANO =
2018-01-18 16:56 METAR KLCI 182156Z AUTO 29008G15KT 10SM OVC038 M03/M09 A2985 RMK AO2 SLPNO
                 T10331089 FZRANO =
2018-01-18 14:56 METAR KLCI 181956Z AUTO 29008G15KT 10SM CLR M01/M08 A2983 RMK AO2 SLPNO
                 T10061078 FZRANO =

Support USWX by starting your Amazon purchase here.